sensor_id;sensor_type;location;lat;lon;timestamp;P1;durP1;ratioP1;P2;durP2;ratioP2
18383;SDS011;9318;48.644;9.456;2023-05-16T00:01:36;1.00;;;1.00;;
18383;SDS011;9318;48.644;9.456;2023-05-16T00:04:03;1.00;;;1.00;;
18383;SDS011;9318;48.644;9.456;2023-05-16T00:06:30;1.00;;;1.00;;
18383;SDS011;9318;48.644;9.456;2023-05-16T00:08:58;1.00;;;1.00;;
18383;SDS011;9318;48.644;9.456;2023-05-16T00:11:25;0.90;;;0.90;;
18383;SDS011;9318;48.644;9.456;2023-05-16T00:13:52;1.10;;;1.10;;
18383;SDS011;9318;48.644;9.456;2023-05-16T00:16:19;0.90;;;0.90;;
18383;SDS011;9318;48.644;9.456;2023-05-16T00:18:46;0.90;;;0.90;;
18383;SDS011;9318;48.644;9.456;2023-05-16T00:21:13;1.00;;;1.00;;
18383;SDS011;9318;48.644;9.456;2023-05-16T00:23:40;0.80;;;0.80;;
18383;SDS011;9318;48.644;9.456;2023-05-16T00:26:09;0.90;;;0.90;;
18383;SDS011;9318;48.644;9.456;2023-05-16T00:28:35;0.90;;;0.90;;
18383;SDS011;9318;48.644;9.456;2023-05-16T00:31:02;0.90;;;0.90;;
18383;SDS011;9318;48.644;9.456;2023-05-16T00:33:29;0.90;;;0.90;;
18383;SDS011;9318;48.644;9.456;2023-05-16T00:35:56;1.00;;;1.00;;
18383;SDS011;9318;48.644;9.456;2023-05-16T00:38:23;0.90;;;0.90;;
18383;SDS011;9318;48.644;9.456;2023-05-16T00:40:51;1.00;;;1.00;;
18383;SDS011;9318;48.644;9.456;2023-05-16T00:43:19;0.93;;;0.93;;
18383;SDS011;9318;48.644;9.456;2023-05-16T00:45:46;0.90;;;0.90;;
18383;SDS011;9318;48.644;9.456;2023-05-16T00:48:13;0.80;;;0.80;;
18383;SDS011;9318;48.644;9.456;2023-05-16T00:50:40;0.90;;;0.90;;
18383;SDS011;9318;48.644;9.456;2023-05-16T00:53:07;1.00;;;1.00;;
18383;SDS011;9318;48.644;9.456;2023-05-16T00:55:35;0.90;;;0.90;;
18383;SDS011;9318;48.644;9.456;2023-05-16T00:58:02;0.90;;;0.90;;
18383;SDS011;9318;48.644;9.456;2023-05-16T01:00:31;0.90;;;0.90;;
18383;SDS011;9318;48.644;9.456;2023-05-16T01:02:58;1.00;;;1.00;;
18383;SDS011;9318;48.644;9.456;2023-05-16T01:05:25;0.90;;;0.90;;
18383;SDS011;9318;48.644;9.456;2023-05-16T01:07:52;0.90;;;0.90;;
18383;SDS011;9318;48.644;9.456;2023-05-16T01:10:19;1.00;;;1.00;;
18383;SDS011;9318;48.644;9.456;2023-05-16T01:12:47;1.00;;;1.00;;
18383;SDS011;9318;48.644;9.456;2023-05-16T01:15:27;1.00;;;1.00;;
18383;SDS011;9318;48.644;9.456;2023-05-16T01:17:59;1.00;;;1.00;;
18383;SDS011;9318;48.644;9.456;2023-05-16T01:20:32;0.90;;;0.90;;
18383;SDS011;9318;48.644;9.456;2023-05-16T01:23:09;1.00;;;1.00;;
18383;SDS011;9318;48.644;9.456;2023-05-16T01:25:55;0.90;;;0.90;;
18383;SDS011;9318;48.644;9.456;2023-05-16T01:28:28;1.00;;;1.00;;
18383;SDS011;9318;48.644;9.456;2023-05-16T01:30:55;0.90;;;0.90;;
18383;SDS011;9318;48.644;9.456;2023-05-16T01:33:22;0.90;;;0.90;;
18383;SDS011;9318;48.644;9.456;2023-05-16T01:35:52;1.00;;;1.00;;
18383;SDS011;9318;48.644;9.456;2023-05-16T01:38:24;1.00;;;1.00;;
18383;SDS011;9318;48.644;9.456;2023-05-16T01:40:52;0.80;;;0.80;;
18383;SDS011;9318;48.644;9.456;2023-05-16T01:43:24;0.80;;;0.80;;
18383;SDS011;9318;48.644;9.456;2023-05-16T01:45:59;0.97;;;0.97;;
18383;SDS011;9318;48.644;9.456;2023-05-16T01:48:34;0.97;;;0.97;;
18383;SDS011;9318;48.644;9.456;2023-05-16T01:51:08;0.90;;;0.90;;
18383;SDS011;9318;48.644;9.456;2023-05-16T01:53:37;0.90;;;0.90;;
18383;SDS011;9318;48.644;9.456;2023-05-16T01:56:06;0.90;;;0.90;;
18383;SDS011;9318;48.644;9.456;2023-05-16T01:58:37;1.00;;;1.00;;
18383;SDS011;9318;48.644;9.456;2023-05-16T02:01:05;0.93;;;0.93;;
18383;SDS011;9318;48.644;9.456;2023-05-16T02:03:32;0.90;;;0.90;;
18383;SDS011;9318;48.644;9.456;2023-05-16T02:06:00;1.00;;;1.00;;
18383;SDS011;9318;48.644;9.456;2023-05-16T02:08:26;0.97;;;0.97;;
18383;SDS011;9318;48.644;9.456;2023-05-16T02:10:54;1.00;;;1.00;;
18383;SDS011;9318;48.644;9.456;2023-05-16T02:13:20;0.90;;;0.90;;
18383;SDS011;9318;48.644;9.456;2023-05-16T02:15:48;0.90;;;0.90;;
18383;SDS011;9318;48.644;9.456;2023-05-16T02:18:16;1.00;;;1.00;;
18383;SDS011;9318;48.644;9.456;2023-05-16T02:20:43;0.90;;;0.90;;
18383;SDS011;9318;48.644;9.456;2023-05-16T02:23:10;1.00;;;1.00;;
18383;SDS011;9318;48.644;9.456;2023-05-16T02:25:37;1.00;;;1.00;;
18383;SDS011;9318;48.644;9.456;2023-05-16T02:28:04;1.00;;;1.00;;
18383;SDS011;9318;48.644;9.456;2023-05-16T02:30:31;1.00;;;1.00;;
18383;SDS011;9318;48.644;9.456;2023-05-16T02:32:59;1.00;;;1.00;;
18383;SDS011;9318;48.644;9.456;2023-05-16T02:35:25;1.00;;;1.00;;
18383;SDS011;9318;48.644;9.456;2023-05-16T02:37:52;0.90;;;0.90;;
18383;SDS011;9318;48.644;9.456;2023-05-16T02:40:19;0.90;;;0.90;;
18383;SDS011;9318;48.644;9.456;2023-05-16T02:42:46;0.90;;;0.90;;
18383;SDS011;9318;48.644;9.456;2023-05-16T02:45:13;0.90;;;0.90;;
18383;SDS011;9318;48.644;9.456;2023-05-16T02:47:40;1.00;;;1.00;;
18383;SDS011;9318;48.644;9.456;2023-05-16T02:50:08;1.00;;;1.00;;
18383;SDS011;9318;48.644;9.456;2023-05-16T02:52:35;0.90;;;0.90;;
18383;SDS011;9318;48.644;9.456;2023-05-16T02:55:02;0.90;;;0.90;;
18383;SDS011;9318;48.644;9.456;2023-05-16T02:57:30;0.90;;;0.90;;
18383;SDS011;9318;48.644;9.456;2023-05-16T02:59:56;1.00;;;1.00;;
18383;SDS011;9318;48.644;9.456;2023-05-16T03:02:24;0.90;;;0.90;;
18383;SDS011;9318;48.644;9.456;2023-05-16T03:04:51;0.90;;;0.90;;
18383;SDS011;9318;48.644;9.456;2023-05-16T03:07:19;0.80;;;0.80;;
18383;SDS011;9318;48.644;9.456;2023-05-16T03:09:45;0.90;;;0.90;;
18383;SDS011;9318;48.644;9.456;2023-05-16T03:12:12;0.90;;;0.90;;
18383;SDS011;9318;48.644;9.456;2023-05-16T03:14:39;0.90;;;0.90;;
18383;SDS011;9318;48.644;9.456;2023-05-16T03:17:07;0.90;;;0.90;;
18383;SDS011;9318;48.644;9.456;2023-05-16T03:19:34;0.83;;;0.83;;
18383;SDS011;9318;48.644;9.456;2023-05-16T03:22:00;0.80;;;0.80;;
18383;SDS011;9318;48.644;9.456;2023-05-16T03:24:29;0.90;;;0.90;;
18383;SDS011;9318;48.644;9.456;2023-05-16T03:26:56;0.93;;;0.93;;
18383;SDS011;9318;48.644;9.456;2023-05-16T03:29:23;1.00;;;1.00;;
18383;SDS011;9318;48.644;9.456;2023-05-16T03:31:50;0.90;;;0.90;;
18383;SDS011;9318;48.644;9.456;2023-05-16T03:34:17;0.90;;;0.90;;
18383;SDS011;9318;48.644;9.456;2023-05-16T03:36:44;0.83;;;0.83;;
18383;SDS011;9318;48.644;9.456;2023-05-16T03:39:11;0.90;;;0.90;;
18383;SDS011;9318;48.644;9.456;2023-05-16T03:41:39;0.90;;;0.90;;
18383;SDS011;9318;48.644;9.456;2023-05-16T03:44:06;0.90;;;0.90;;
18383;SDS011;9318;48.644;9.456;2023-05-16T03:46:33;1.00;;;1.00;;
18383;SDS011;9318;48.644;9.456;2023-05-16T03:49:00;0.90;;;0.90;;
18383;SDS011;9318;48.644;9.456;2023-05-16T03:51:27;0.93;;;0.93;;
18383;SDS011;9318;48.644;9.456;2023-05-16T03:53:55;1.00;;;1.00;;
18383;SDS011;9318;48.644;9.456;2023-05-16T03:56:22;0.97;;;0.97;;
18383;SDS011;9318;48.644;9.456;2023-05-16T03:58:50;0.83;;;0.83;;
18383;SDS011;9318;48.644;9.456;2023-05-16T04:01:17;0.90;;;0.90;;
18383;SDS011;9318;48.644;9.456;2023-05-16T04:03:43;0.90;;;0.90;;
18383;SDS011;9318;48.644;9.456;2023-05-16T04:06:10;0.90;;;0.90;;
18383;SDS011;9318;48.644;9.456;2023-05-16T04:08:37;0.90;;;0.90;;
18383;SDS011;9318;48.644;9.456;2023-05-16T04:11:05;0.90;;;0.90;;
18383;SDS011;9318;48.644;9.456;2023-05-16T04:13:31;1.00;;;1.00;;
18383;SDS011;9318;48.644;9.456;2023-05-16T04:15:59;0.90;;;0.90;;
18383;SDS011;9318;48.644;9.456;2023-05-16T04:18:27;0.90;;;0.90;;
18383;SDS011;9318;48.644;9.456;2023-05-16T04:20:53;0.90;;;0.90;;
18383;SDS011;9318;48.644;9.456;2023-05-16T04:23:20;0.90;;;0.90;;
18383;SDS011;9318;48.644;9.456;2023-05-16T04:25:47;0.90;;;0.90;;
18383;SDS011;9318;48.644;9.456;2023-05-16T04:28:14;0.90;;;0.90;;
18383;SDS011;9318;48.644;9.456;2023-05-16T04:30:42;0.90;;;0.90;;
18383;SDS011;9318;48.644;9.456;2023-05-16T04:33:10;0.90;;;0.90;;
18383;SDS011;9318;48.644;9.456;2023-05-16T04:35:36;0.90;;;0.90;;
18383;SDS011;9318;48.644;9.456;2023-05-16T04:38:03;0.90;;;0.90;;
18383;SDS011;9318;48.644;9.456;2023-05-16T04:40:30;0.90;;;0.90;;
18383;SDS011;9318;48.644;9.456;2023-05-16T04:42:57;0.80;;;0.80;;
18383;SDS011;9318;48.644;9.456;2023-05-16T04:45:24;0.80;;;0.80;;
18383;SDS011;9318;48.644;9.456;2023-05-16T04:47:51;0.90;;;0.90;;
18383;SDS011;9318;48.644;9.456;2023-05-16T04:50:19;0.90;;;0.90;;
18383;SDS011;9318;48.644;9.456;2023-05-16T04:52:46;0.80;;;0.80;;
18383;SDS011;9318;48.644;9.456;2023-05-16T04:55:13;0.90;;;0.90;;
18383;SDS011;9318;48.644;9.456;2023-05-16T04:57:40;0.80;;;0.80;;
18383;SDS011;9318;48.644;9.456;2023-05-16T05:00:07;0.70;;;0.70;;
18383;SDS011;9318;48.644;9.456;2023-05-16T05:02:36;0.80;;;0.80;;
18383;SDS011;9318;48.644;9.456;2023-05-16T05:05:03;0.80;;;0.80;;
18383;SDS011;9318;48.644;9.456;2023-05-16T05:07:31;0.90;;;0.90;;
18383;SDS011;9318;48.644;9.456;2023-05-16T05:09:58;0.80;;;0.80;;
18383;SDS011;9318;48.644;9.456;2023-05-16T05:12:25;0.80;;;0.80;;
18383;SDS011;9318;48.644;9.456;2023-05-16T05:14:52;0.90;;;0.90;;
18383;SDS011;9318;48.644;9.456;2023-05-16T05:17:19;0.80;;;0.80;;
18383;SDS011;9318;48.644;9.456;2023-05-16T05:19:46;0.80;;;0.80;;
18383;SDS011;9318;48.644;9.456;2023-05-16T05:22:13;0.87;;;0.87;;
18383;SDS011;9318;48.644;9.456;2023-05-16T05:24:41;0.80;;;0.80;;
18383;SDS011;9318;48.644;9.456;2023-05-16T05:27:08;0.90;;;0.90;;
18383;SDS011;9318;48.644;9.456;2023-05-16T05:29:35;0.70;;;0.70;;
18383;SDS011;9318;48.644;9.456;2023-05-16T05:32:01;0.87;;;0.87;;
18383;SDS011;9318;48.644;9.456;2023-05-16T05:34:28;0.83;;;0.83;;
18383;SDS011;9318;48.644;9.456;2023-05-16T05:36:55;0.80;;;0.80;;
18383;SDS011;9318;48.644;9.456;2023-05-16T05:39:22;0.80;;;0.80;;
18383;SDS011;9318;48.644;9.456;2023-05-16T05:41:51;0.83;;;0.83;;
18383;SDS011;9318;48.644;9.456;2023-05-16T05:44:17;0.90;;;0.90;;
18383;SDS011;9318;48.644;9.456;2023-05-16T05:46:45;0.90;;;0.90;;
18383;SDS011;9318;48.644;9.456;2023-05-16T05:49:11;0.97;;;0.97;;
18383;SDS011;9318;48.644;9.456;2023-05-16T05:51:38;0.80;;;0.80;;
18383;SDS011;9318;48.644;9.456;2023-05-16T05:54:05;0.90;;;0.90;;
18383;SDS011;9318;48.644;9.456;2023-05-16T05:56:32;0.90;;;0.90;;
18383;SDS011;9318;48.644;9.456;2023-05-16T05:59:00;0.90;;;0.90;;
18383;SDS011;9318;48.644;9.456;2023-05-16T06:01:27;0.80;;;0.80;;
18383;SDS011;9318;48.644;9.456;2023-05-16T06:03:54;1.00;;;1.00;;
18383;SDS011;9318;48.644;9.456;2023-05-16T06:06:21;0.80;;;0.80;;
18383;SDS011;9318;48.644;9.456;2023-05-16T06:08:48;0.90;;;0.90;;
18383;SDS011;9318;48.644;9.456;2023-05-16T06:11:15;0.80;;;0.80;;
18383;SDS011;9318;48.644;9.456;2023-05-16T06:13:41;0.90;;;0.90;;
18383;SDS011;9318;48.644;9.456;2023-05-16T06:16:09;0.80;;;0.80;;
18383;SDS011;9318;48.644;9.456;2023-05-16T06:18:36;0.80;;;0.80;;
18383;SDS011;9318;48.644;9.456;2023-05-16T06:21:03;0.80;;;0.80;;
18383;SDS011;9318;48.644;9.456;2023-05-16T06:23:30;0.90;;;0.90;;
18383;SDS011;9318;48.644;9.456;2023-05-16T06:25:57;0.70;;;0.70;;
18383;SDS011;9318;48.644;9.456;2023-05-16T06:28:23;0.83;;;0.83;;
18383;SDS011;9318;48.644;9.456;2023-05-16T06:30:50;0.70;;;0.70;;
18383;SDS011;9318;48.644;9.456;2023-05-16T06:33:18;0.80;;;0.80;;
18383;SDS011;9318;48.644;9.456;2023-05-16T06:35:45;0.80;;;0.80;;
18383;SDS011;9318;48.644;9.456;2023-05-16T06:38:12;0.77;;;0.77;;
18383;SDS011;9318;48.644;9.456;2023-05-16T06:40:39;0.70;;;0.70;;
18383;SDS011;9318;48.644;9.456;2023-05-16T06:43:06;0.70;;;0.70;;
18383;SDS011;9318;48.644;9.456;2023-05-16T06:45:33;0.70;;;0.70;;
18383;SDS011;9318;48.644;9.456;2023-05-16T06:48:00;0.80;;;0.80;;
18383;SDS011;9318;48.644;9.456;2023-05-16T06:50:28;0.80;;;0.80;;
18383;SDS011;9318;48.644;9.456;2023-05-16T06:52:55;0.80;;;0.80;;
18383;SDS011;9318;48.644;9.456;2023-05-16T06:55:21;0.80;;;0.80;;
18383;SDS011;9318;48.644;9.456;2023-05-16T06:57:48;0.80;;;0.80;;
18383;SDS011;9318;48.644;9.456;2023-05-16T07:00:15;0.80;;;0.80;;
18383;SDS011;9318;48.644;9.456;2023-05-16T07:02:43;0.70;;;0.70;;
18383;SDS011;9318;48.644;9.456;2023-05-16T07:05:09;0.70;;;0.70;;
18383;SDS011;9318;48.644;9.456;2023-05-16T07:07:38;0.80;;;0.80;;
18383;SDS011;9318;48.644;9.456;2023-05-16T07:10:05;0.80;;;0.80;;
18383;SDS011;9318;48.644;9.456;2023-05-16T07:12:32;0.80;;;0.80;;
18383;SDS011;9318;48.644;9.456;2023-05-16T07:15:00;0.70;;;0.70;;
18383;SDS011;9318;48.644;9.456;2023-05-16T07:17:27;0.70;;;0.70;;
18383;SDS011;9318;48.644;9.456;2023-05-16T07:19:54;0.73;;;0.73;;
18383;SDS011;9318;48.644;9.456;2023-05-16T07:22:20;1.00;;;1.00;;
18383;SDS011;9318;48.644;9.456;2023-05-16T07:24:48;0.70;;;0.70;;
18383;SDS011;9318;48.644;9.456;2023-05-16T07:27:17;0.70;;;0.70;;
18383;SDS011;9318;48.644;9.456;2023-05-16T07:29:44;0.80;;;0.80;;
18383;SDS011;9318;48.644;9.456;2023-05-16T07:32:10;0.70;;;0.70;;
18383;SDS011;9318;48.644;9.456;2023-05-16T07:34:37;0.80;;;0.80;;
18383;SDS011;9318;48.644;9.456;2023-05-16T07:37:04;0.90;;;0.90;;
18383;SDS011;9318;48.644;9.456;2023-05-16T07:39:36;0.80;;;0.80;;
18383;SDS011;9318;48.644;9.456;2023-05-16T07:42:05;0.63;;;0.63;;
18383;SDS011;9318;48.644;9.456;2023-05-16T07:44:32;0.70;;;0.70;;
18383;SDS011;9318;48.644;9.456;2023-05-16T07:46:59;0.80;;;0.80;;
18383;SDS011;9318;48.644;9.456;2023-05-16T07:49:25;0.70;;;0.70;;
18383;SDS011;9318;48.644;9.456;2023-05-16T07:51:52;0.70;;;0.70;;
18383;SDS011;9318;48.644;9.456;2023-05-16T07:54:19;0.73;;;0.73;;
18383;SDS011;9318;48.644;9.456;2023-05-16T07:56:45;0.70;;;0.70;;
18383;SDS011;9318;48.644;9.456;2023-05-16T07:59:13;0.73;;;0.73;;
18383;SDS011;9318;48.644;9.456;2023-05-16T08:01:40;0.70;;;0.70;;
18383;SDS011;9318;48.644;9.456;2023-05-16T08:04:07;0.70;;;0.70;;
18383;SDS011;9318;48.644;9.456;2023-05-16T08:06:34;0.70;;;0.70;;
18383;SDS011;9318;48.644;9.456;2023-05-16T08:09:01;0.70;;;0.70;;
18383;SDS011;9318;48.644;9.456;2023-05-16T08:11:28;0.70;;;0.70;;
18383;SDS011;9318;48.644;9.456;2023-05-16T08:13:54;0.67;;;0.67;;
18383;SDS011;9318;48.644;9.456;2023-05-16T08:16:23;0.77;;;0.77;;
18383;SDS011;9318;48.644;9.456;2023-05-16T08:18:49;0.70;;;0.70;;
18383;SDS011;9318;48.644;9.456;2023-05-16T08:21:16;0.60;;;0.60;;
18383;SDS011;9318;48.644;9.456;2023-05-16T08:23:43;0.70;;;0.70;;
18383;SDS011;9318;48.644;9.456;2023-05-16T08:26:10;0.70;;;0.70;;
18383;SDS011;9318;48.644;9.456;2023-05-16T08:28:36;0.70;;;0.70;;
18383;SDS011;9318;48.644;9.456;2023-05-16T08:31:03;0.80;;;0.80;;
18383;SDS011;9318;48.644;9.456;2023-05-16T08:33:31;0.70;;;0.70;;
18383;SDS011;9318;48.644;9.456;2023-05-16T08:35:58;0.80;;;0.80;;
18383;SDS011;9318;48.644;9.456;2023-05-16T08:38:26;0.70;;;0.70;;
18383;SDS011;9318;48.644;9.456;2023-05-16T08:40:52;0.70;;;0.70;;
18383;SDS011;9318;48.644;9.456;2023-05-16T08:43:19;0.80;;;0.80;;
18383;SDS011;9318;48.644;9.456;2023-05-16T08:45:46;0.80;;;0.80;;
18383;SDS011;9318;48.644;9.456;2023-05-16T08:48:13;0.70;;;0.70;;
18383;SDS011;9318;48.644;9.456;2023-05-16T08:50:43;0.80;;;0.80;;
18383;SDS011;9318;48.644;9.456;2023-05-16T08:53:09;0.70;;;0.70;;
18383;SDS011;9318;48.644;9.456;2023-05-16T08:55:39;0.70;;;0.70;;
18383;SDS011;9318;48.644;9.456;2023-05-16T08:58:07;0.63;;;0.63;;
18383;SDS011;9318;48.644;9.456;2023-05-16T09:00:34;0.70;;;0.70;;
18383;SDS011;9318;48.644;9.456;2023-05-16T09:03:01;0.80;;;0.80;;
18383;SDS011;9318;48.644;9.456;2023-05-16T09:05:28;0.70;;;0.70;;
18383;SDS011;9318;48.644;9.456;2023-05-16T09:07:57;0.60;;;0.60;;
18383;SDS011;9318;48.644;9.456;2023-05-16T09:10:24;0.80;;;0.80;;
18383;SDS011;9318;48.644;9.456;2023-05-16T09:12:51;0.70;;;0.70;;
18383;SDS011;9318;48.644;9.456;2023-05-16T09:15:18;0.80;;;0.80;;
18383;SDS011;9318;48.644;9.456;2023-05-16T09:17:45;0.70;;;0.70;;
18383;SDS011;9318;48.644;9.456;2023-05-16T09:20:13;0.80;;;0.80;;
18383;SDS011;9318;48.644;9.456;2023-05-16T09:22:49;0.70;;;0.70;;
18383;SDS011;9318;48.644;9.456;2023-05-16T09:25:19;0.80;;;0.80;;
18383;SDS011;9318;48.644;9.456;2023-05-16T09:27:47;0.80;;;0.80;;
18383;SDS011;9318;48.644;9.456;2023-05-16T09:30:14;0.80;;;0.80;;
18383;SDS011;9318;48.644;9.456;2023-05-16T09:32:44;0.80;;;0.80;;
18383;SDS011;9318;48.644;9.456;2023-05-16T09:35:13;0.73;;;0.73;;
18383;SDS011;9318;48.644;9.456;2023-05-16T09:37:43;0.80;;;0.80;;
18383;SDS011;9318;48.644;9.456;2023-05-16T09:40:11;0.70;;;0.70;;
18383;SDS011;9318;48.644;9.456;2023-05-16T09:42:40;0.70;;;0.70;;
18383;SDS011;9318;48.644;9.456;2023-05-16T09:45:07;0.70;;;0.70;;
18383;SDS011;9318;48.644;9.456;2023-05-16T09:47:38;0.70;;;0.70;;
18383;SDS011;9318;48.644;9.456;2023-05-16T09:50:12;0.60;;;0.60;;
18383;SDS011;9318;48.644;9.456;2023-05-16T09:52:40;0.80;;;0.80;;
18383;SDS011;9318;48.644;9.456;2023-05-16T09:55:07;0.60;;;0.60;;
18383;SDS011;9318;48.644;9.456;2023-05-16T09:57:39;0.70;;;0.70;;
18383;SDS011;9318;48.644;9.456;2023-05-16T10:00:06;0.70;;;0.70;;
18383;SDS011;9318;48.644;9.456;2023-05-16T10:02:37;0.70;;;0.70;;
18383;SDS011;9318;48.644;9.456;2023-05-16T10:05:04;0.80;;;0.80;;
18383;SDS011;9318;48.644;9.456;2023-05-16T10:07:32;0.80;;;0.80;;
18383;SDS011;9318;48.644;9.456;2023-05-16T10:10:00;0.70;;;0.70;;
18383;SDS011;9318;48.644;9.456;2023-05-16T10:12:30;0.60;;;0.60;;
18383;SDS011;9318;48.644;9.456;2023-05-16T10:15:01;0.70;;;0.70;;
18383;SDS011;9318;48.644;9.456;2023-05-16T10:17:30;0.63;;;0.63;;
18383;SDS011;9318;48.644;9.456;2023-05-16T10:19:59;0.80;;;0.80;;
18383;SDS011;9318;48.644;9.456;2023-05-16T10:22:30;0.60;;;0.60;;
18383;SDS011;9318;48.644;9.456;2023-05-16T10:24:59;0.70;;;0.70;;
18383;SDS011;9318;48.644;9.456;2023-05-16T10:27:33;0.80;;;0.80;;
18383;SDS011;9318;48.644;9.456;2023-05-16T10:30:02;0.70;;;0.70;;
18383;SDS011;9318;48.644;9.456;2023-05-16T10:32:30;0.80;;;0.80;;
18383;SDS011;9318;48.644;9.456;2023-05-16T10:34:57;0.77;;;0.77;;
18383;SDS011;9318;48.644;9.456;2023-05-16T10:37:27;0.80;;;0.80;;
18383;SDS011;9318;48.644;9.456;2023-05-16T10:39:55;0.80;;;0.80;;
18383;SDS011;9318;48.644;9.456;2023-05-16T10:42:23;0.80;;;0.80;;
18383;SDS011;9318;48.644;9.456;2023-05-16T10:44:52;0.77;;;0.77;;
18383;SDS011;9318;48.644;9.456;2023-05-16T10:47:21;0.80;;;0.80;;
18383;SDS011;9318;48.644;9.456;2023-05-16T10:49:49;0.80;;;0.80;;
18383;SDS011;9318;48.644;9.456;2023-05-16T10:52:16;0.70;;;0.70;;
18383;SDS011;9318;48.644;9.456;2023-05-16T10:54:43;0.60;;;0.60;;
18383;SDS011;9318;48.644;9.456;2023-05-16T10:57:16;0.80;;;0.80;;
18383;SDS011;9318;48.644;9.456;2023-05-16T10:59:45;0.60;;;0.60;;
18383;SDS011;9318;48.644;9.456;2023-05-16T11:02:20;0.60;;;0.60;;
18383;SDS011;9318;48.644;9.456;2023-05-16T11:04:53;0.70;;;0.70;;
18383;SDS011;9318;48.644;9.456;2023-05-16T11:07:21;0.70;;;0.70;;
18383;SDS011;9318;48.644;9.456;2023-05-16T11:10:00;0.70;;;0.70;;
18383;SDS011;9318;48.644;9.456;2023-05-16T11:12:36;0.80;;;0.80;;
18383;SDS011;9318;48.644;9.456;2023-05-16T11:15:16;0.70;;;0.70;;
18383;SDS011;9318;48.644;9.456;2023-05-16T11:17:45;0.63;;;0.63;;
18383;SDS011;9318;48.644;9.456;2023-05-16T11:20:25;0.70;;;0.70;;
18383;SDS011;9318;48.644;9.456;2023-05-16T11:25:45;0.67;;;0.67;;
18383;SDS011;9318;48.644;9.456;2023-05-16T11:28:14;0.70;;;0.70;;
18383;SDS011;9318;48.644;9.456;2023-05-16T11:30:43;0.70;;;0.70;;
18383;SDS011;9318;48.644;9.456;2023-05-16T11:33:12;0.80;;;0.80;;
18383;SDS011;9318;48.644;9.456;2023-05-16T11:35:39;0.70;;;0.70;;
18383;SDS011;9318;48.644;9.456;2023-05-16T11:38:10;0.80;;;0.80;;
18383;SDS011;9318;48.644;9.456;2023-05-16T11:40:40;0.60;;;0.60;;
18383;SDS011;9318;48.644;9.456;2023-05-16T11:43:08;0.70;;;0.70;;
18383;SDS011;9318;48.644;9.456;2023-05-16T11:45:35;0.73;;;0.73;;
18383;SDS011;9318;48.644;9.456;2023-05-16T11:48:03;0.77;;;0.77;;
18383;SDS011;9318;48.644;9.456;2023-05-16T11:50:32;0.70;;;0.70;;
18383;SDS011;9318;48.644;9.456;2023-05-16T11:53:00;0.70;;;0.70;;
18383;SDS011;9318;48.644;9.456;2023-05-16T11:55:27;0.60;;;0.60;;
18383;SDS011;9318;48.644;9.456;2023-05-16T11:57:56;0.90;;;0.90;;
18383;SDS011;9318;48.644;9.456;2023-05-16T12:00:23;0.80;;;0.80;;
18383;SDS011;9318;48.644;9.456;2023-05-16T12:02:51;0.80;;;0.80;;
18383;SDS011;9318;48.644;9.456;2023-05-16T12:05:19;0.90;;;0.90;;
18383;SDS011;9318;48.644;9.456;2023-05-16T12:07:50;0.80;;;0.80;;
18383;SDS011;9318;48.644;9.456;2023-05-16T12:10:18;0.70;;;0.70;;
18383;SDS011;9318;48.644;9.456;2023-05-16T12:12:46;0.90;;;0.90;;
18383;SDS011;9318;48.644;9.456;2023-05-16T12:15:15;0.87;;;0.87;;
18383;SDS011;9318;48.644;9.456;2023-05-16T12:17:42;0.83;;;0.83;;
18383;SDS011;9318;48.644;9.456;2023-05-16T12:20:10;0.80;;;0.80;;
18383;SDS011;9318;48.644;9.456;2023-05-16T12:22:40;0.80;;;0.80;;
18383;SDS011;9318;48.644;9.456;2023-05-16T12:25:20;0.80;;;0.80;;
18383;SDS011;9318;48.644;9.456;2023-05-16T12:27:48;0.80;;;0.80;;
18383;SDS011;9318;48.644;9.456;2023-05-16T12:30:16;0.70;;;0.70;;
18383;SDS011;9318;48.644;9.456;2023-05-16T12:32:43;0.73;;;0.73;;
18383;SDS011;9318;48.644;9.456;2023-05-16T12:35:10;0.73;;;0.73;;
18383;SDS011;9318;48.644;9.456;2023-05-16T12:37:37;0.70;;;0.70;;
18383;SDS011;9318;48.644;9.456;2023-05-16T12:40:04;0.70;;;0.70;;
18383;SDS011;9318;48.644;9.456;2023-05-16T12:42:36;0.70;;;0.70;;
18383;SDS011;9318;48.644;9.456;2023-05-16T12:45:03;0.70;;;0.70;;
18383;SDS011;9318;48.644;9.456;2023-05-16T12:47:39;0.80;;;0.80;;
18383;SDS011;9318;48.644;9.456;2023-05-16T12:50:07;0.70;;;0.70;;
18383;SDS011;9318;48.644;9.456;2023-05-16T12:52:36;0.70;;;0.70;;
18383;SDS011;9318;48.644;9.456;2023-05-16T12:55:03;0.80;;;0.80;;
18383;SDS011;9318;48.644;9.456;2023-05-16T12:57:30;0.70;;;0.70;;
18383;SDS011;9318;48.644;9.456;2023-05-16T12:59:59;0.80;;;0.80;;
18383;SDS011;9318;48.644;9.456;2023-05-16T13:02:25;0.80;;;0.80;;
18383;SDS011;9318;48.644;9.456;2023-05-16T13:04:53;0.80;;;0.80;;
18383;SDS011;9318;48.644;9.456;2023-05-16T13:07:20;0.70;;;0.70;;
18383;SDS011;9318;48.644;9.456;2023-05-16T13:09:46;0.70;;;0.70;;
18383;SDS011;9318;48.644;9.456;2023-05-16T13:12:13;0.80;;;0.80;;
18383;SDS011;9318;48.644;9.456;2023-05-16T13:14:40;0.70;;;0.70;;
18383;SDS011;9318;48.644;9.456;2023-05-16T13:17:08;0.80;;;0.80;;
18383;SDS011;9318;48.644;9.456;2023-05-16T13:19:35;0.70;;;0.70;;
18383;SDS011;9318;48.644;9.456;2023-05-16T13:22:02;0.70;;;0.70;;
18383;SDS011;9318;48.644;9.456;2023-05-16T13:24:29;0.70;;;0.70;;
18383;SDS011;9318;48.644;9.456;2023-05-16T13:26:56;0.70;;;0.70;;
18383;SDS011;9318;48.644;9.456;2023-05-16T13:29:23;0.70;;;0.70;;
18383;SDS011;9318;48.644;9.456;2023-05-16T13:31:50;0.60;;;0.60;;
18383;SDS011;9318;48.644;9.456;2023-05-16T13:34:18;0.80;;;0.80;;
18383;SDS011;9318;48.644;9.456;2023-05-16T13:36:45;0.63;;;0.63;;
18383;SDS011;9318;48.644;9.456;2023-05-16T13:39:13;0.70;;;0.70;;
18383;SDS011;9318;48.644;9.456;2023-05-16T13:41:40;0.70;;;0.70;;
18383;SDS011;9318;48.644;9.456;2023-05-16T13:44:07;0.77;;;0.77;;
18383;SDS011;9318;48.644;9.456;2023-05-16T13:46:34;0.70;;;0.70;;
18383;SDS011;9318;48.644;9.456;2023-05-16T13:49:00;0.70;;;0.70;;
18383;SDS011;9318;48.644;9.456;2023-05-16T13:51:29;0.80;;;0.80;;
18383;SDS011;9318;48.644;9.456;2023-05-16T13:53:55;0.70;;;0.70;;
18383;SDS011;9318;48.644;9.456;2023-05-16T13:56:22;0.83;;;0.83;;
18383;SDS011;9318;48.644;9.456;2023-05-16T13:58:49;0.80;;;0.80;;
18383;SDS011;9318;48.644;9.456;2023-05-16T14:01:16;0.70;;;0.70;;
18383;SDS011;9318;48.644;9.456;2023-05-16T14:03:43;0.90;;;0.90;;
18383;SDS011;9318;48.644;9.456;2023-05-16T14:06:10;0.80;;;0.80;;
18383;SDS011;9318;48.644;9.456;2023-05-16T14:08:38;0.80;;;0.80;;
18383;SDS011;9318;48.644;9.456;2023-05-16T14:11:05;0.70;;;0.70;;
18383;SDS011;9318;48.644;9.456;2023-05-16T14:13:32;0.80;;;0.80;;
18383;SDS011;9318;48.644;9.456;2023-05-16T14:15:59;0.70;;;0.70;;
18383;SDS011;9318;48.644;9.456;2023-05-16T14:18:26;0.80;;;0.80;;
18383;SDS011;9318;48.644;9.456;2023-05-16T14:20:53;0.70;;;0.70;;
18383;SDS011;9318;48.644;9.456;2023-05-16T14:23:20;0.70;;;0.70;;
18383;SDS011;9318;48.644;9.456;2023-05-16T14:25:48;0.70;;;0.70;;
18383;SDS011;9318;48.644;9.456;2023-05-16T14:28:15;0.77;;;0.77;;
18383;SDS011;9318;48.644;9.456;2023-05-16T14:30:42;0.70;;;0.70;;
18383;SDS011;9318;48.644;9.456;2023-05-16T14:33:09;0.83;;;0.83;;
18383;SDS011;9318;48.644;9.456;2023-05-16T14:35:36;0.80;;;0.80;;
18383;SDS011;9318;48.644;9.456;2023-05-16T14:38:03;0.80;;;0.80;;
18383;SDS011;9318;48.644;9.456;2023-05-16T14:40:31;0.80;;;0.80;;
18383;SDS011;9318;48.644;9.456;2023-05-16T14:42:59;0.70;;;0.70;;
18383;SDS011;9318;48.644;9.456;2023-05-16T14:45:28;0.80;;;0.80;;
18383;SDS011;9318;48.644;9.456;2023-05-16T14:47:55;0.80;;;0.80;;
18383;SDS011;9318;48.644;9.456;2023-05-16T14:50:22;0.80;;;0.80;;
18383;SDS011;9318;48.644;9.456;2023-05-16T14:52:48;0.60;;;0.60;;
18383;SDS011;9318;48.644;9.456;2023-05-16T14:55:17;0.77;;;0.77;;
18383;SDS011;9318;48.644;9.456;2023-05-16T14:57:44;0.70;;;0.70;;
18383;SDS011;9318;48.644;9.456;2023-05-16T15:00:13;0.70;;;0.70;;
18383;SDS011;9318;48.644;9.456;2023-05-16T15:02:41;0.70;;;0.70;;
18383;SDS011;9318;48.644;9.456;2023-05-16T15:05:08;0.70;;;0.70;;
18383;SDS011;9318;48.644;9.456;2023-05-16T15:07:34;0.90;;;0.90;;